Portada
METAR-TAF:

METAR-TAF

Aeroports :

Alton-Saint Louis, Illinois, Estats Units d'Amèrica

latitud: 38-54N, longitud: 090-03W, altitud: 166 m

Observació

L'informe es va fer fa 21 minuts, a les 13:50 UTC
Vent 5 kt del Nord-Oest
Temperatura 2°C
Humitat 100%
Pressió 1012 hPa
Visibilitat: 8.0 km
Cel ennuvolat a una alçada de 1000 ft
boirina

METAR: KALN 181350Z 31005KT 5SM BR BKN010 02/02 A2988

Hora: 08:11 (14:11 UTC)


TAF: manca

Observacions i pronòstics meteorològics de més de 4000 aeroports (METAR i TAF).

Les estacions disponibles són els punts grocs i vermells al mapa.

Posi el ratolí al punt desitjat per veure el nom de l'estació.

Feu clic per veure les observacions i els pronòstics meteorològics.

Per canviar el mapa: feu clic els botons verds amb una creu de color negre per apropar; al botó verd amb un guió per allunyar la imatge; o en les fletxes verdes per a mapes adjacents.


METAR-TAF: